Sonny C — WDF5921 — position and weather

sailwx.info

Track history (hours):
 
Tides and Currents Weather Stations Pressure Air Temp Water Temp Dewpoint Dewpoint Depression Visibility Wind Speed Wind Dir Waves Ship Positions

Sonny C

Owner: W Brewster LLC, Venice, LA. More information available from US FCC via Universal Licensing System and Coast Guard Vessel Documentation Center.

Last reported at 2014-Nov-26 22:13 UTC. Time now 2014-Nov-26 23:03 UTC.
Position N 29°52' W 090°04'.

Length 21 m; draft 1.5 m.

Type: Tug. MMSI: 367468710.

Date/timePositionNaut miles runAvg speedWind from/ knotsBaromVisibWave heightAir tempDewpointWater temp
2014-Nov-26 22:13N 29°52' W 090°04'0 0.0
2014-Nov-26 17:21N 29°52' W 090°04'0 0.0
2014-Nov-26 16:26N 29°52' W 090°04'0 0.0
2014-Nov-26 14:29N 29°52' W 090°04'0 0.0
2014-Nov-26 13:24N 29°52' W 090°04'0 0.0
2014-Nov-26 12:30N 29°52' W 090°04'0 0.0
2014-Nov-26 10:09N 29°52' W 090°04'0 0.0
2014-Nov-26 09:32N 29°52' W 090°04'0 0.0
2014-Nov-26 08:27N 29°52' W 090°04'3 0.1
2014-Nov-24 09:10N 29°50' W 090°03'0 0.0
2014-Nov-24 08:07N 29°50' W 090°03'0 0.0
2014-Nov-24 07:10N 29°50' W 090°03'0 0.0
2014-Nov-24 06:28N 29°50' W 090°03'0 0.0
2014-Nov-24 05:30N 29°50' W 090°03'0 0.0
2014-Nov-24 04:30N 29°50' W 090°03'0 0.0
2014-Nov-24 03:28N 29°50' W 090°03'0 0.0
2014-Nov-24 02:32N 29°50' W 090°03'0 0.0
2014-Nov-24 01:31N 29°50' W 090°03'0 0.0
2014-Nov-24 00:33N 29°50' W 090°03'0 0.0
2014-Nov-23 23:31N 29°50' W 090°03'2 1.6
2014-Nov-23 22:22N 29°52' W 090°01'4 3.8
2014-Nov-23 21:16N 29°55' W 089°58'1 0.7
2014-Nov-23 20:31N 29°55' W 089°58'0 0.0
2014-Nov-23 19:27N 29°55' W 089°58'0 0.0
2014-Nov-23 18:30N 29°55' W 089°58'3 3.0
2014-Nov-23 17:33N 29°57' W 090°00'2 1.7
2014-Nov-23 16:31N 29°58' W 090°02'2 0.1
2014-Nov-22 22:19N 29°60' W 090°01'  
Track history (hours):
 
Tides and Currents Weather Stations Pressure Air Temp Water Temp Dewpoint Dewpoint Depression Visibility Wind Speed Wind Dir Waves Ship Positions

Sonny C

Owner: W Brewster LLC, Venice, LA. More information available from US FCC via Universal Licensing System and Coast Guard Vessel Documentation Center.

Last reported at 2014-Nov-26 22:13 UTC. Time now 2014-Nov-26 23:03 UTC.
Position N 29°52' W 090°04'.

Length 21 m; draft 1.5 m.

Type: Tug. MMSI: 367468710.

Date/timePositionNaut miles runAvg speedWind from/ knotsBaromVisibWave heightAir tempDewpointWater temp
2014-Nov-26 22:13N 29°52' W 090°04'0 0.0
2014-Nov-26 17:21N 29°52' W 090°04'0 0.0
2014-Nov-26 16:26N 29°52' W 090°04'0 0.0
2014-Nov-26 14:29N 29°52' W 090°04'0 0.0
2014-Nov-26 13:24N 29°52' W 090°04'0 0.0
2014-Nov-26 12:30N 29°52' W 090°04'0 0.0
2014-Nov-26 10:09N 29°52' W 090°04'0 0.0
2014-Nov-26 09:32N 29°52' W 090°04'0 0.0
2014-Nov-26 08:27N 29°52' W 090°04'3 0.1
2014-Nov-24 09:10N 29°50' W 090°03'0 0.0
2014-Nov-24 08:07N 29°50' W 090°03'0 0.0
2014-Nov-24 07:10N 29°50' W 090°03'0 0.0
2014-Nov-24 06:28N 29°50' W 090°03'0 0.0
2014-Nov-24 05:30N 29°50' W 090°03'0 0.0
2014-Nov-24 04:30N 29°50' W 090°03'0 0.0
2014-Nov-24 03:28N 29°50' W 090°03'0 0.0
2014-Nov-24 02:32N 29°50' W 090°03'0 0.0
2014-Nov-24 01:31N 29°50' W 090°03'0 0.0
2014-Nov-24 00:33N 29°50' W 090°03'0 0.0
2014-Nov-23 23:31N 29°50' W 090°03'2 1.6
2014-Nov-23 22:22N 29°52' W 090°01'4 3.8
2014-Nov-23 21:16N 29°55' W 089°58'1 0.7
2014-Nov-23 20:31N 29°55' W 089°58'0 0.0
2014-Nov-23 19:27N 29°55' W 089°58'0 0.0
2014-Nov-23 18:30N 29°55' W 089°58'3 3.0
2014-Nov-23 17:33N 29°57' W 090°00'2 1.7
2014-Nov-23 16:31N 29°58' W 090°02'2 0.1
2014-Nov-22 22:19N 29°60' W 090°01'  

Dump ship's entire track history